Time;durP1;ratioP1;P1;durP2;ratioP2;P2;SDS_P1;SDS_P2;PMS_P1;PMS_P2;Temp;Humidity;BMP_temperature;BMP_pressure;BME280_temperature;BME280_humidity;BME280_pressure;Samples;Min_cycle;Max_cycle;Signal;HPM_P1;HPM_P2
2021/07/18 00:01:40;;;;;;;;;;;18.80;80.10;;;;;;4991616;28;19909;-49
2021/07/18 00:04:05;;;;;;;;;;;18.80;80.10;;;;;;4991155;28;19916;-49
2021/07/18 00:06:31;;;;;;;;;;;18.70;80.40;;;;;;4991287;28;19914;-48
2021/07/18 00:08:56;;;;;;;;;;;18.60;80.60;;;;;;4990102;28;20005;-51
2021/07/18 00:11:22;;;;;;;;;;;18.50;80.80;;;;;;4991485;28;20411;-49
2021/07/18 00:13:47;;;;;;;;;;;18.30;81.90;;;;;;4991317;28;19976;-48
2021/07/18 00:16:13;;;;;;;;;;;18.10;82.70;;;;;;4989884;28;19910;-48
2021/07/18 00:18:38;;;;;;;;;;;18.10;82.80;;;;;;4991085;28;19910;-51
2021/07/18 00:21:04;;;;;;;;;;;18.10;82.70;;;;;;4990978;28;19910;-48
2021/07/18 00:23:29;;;;;;;;;;;18.20;82.50;;;;;;4991065;28;19910;-53
2021/07/18 00:25:55;;;;;;;;;;;18.10;82.90;;;;;;4991319;28;19914;-49
2021/07/18 00:28:20;;;;;;;;;;;18.20;82.70;;;;;;4990938;28;19913;-48
2021/07/18 00:30:46;;;;;;;;;;;18.10;82.70;;;;;;4990883;28;20350;-48
2021/07/18 00:33:11;;;;;;;;;;;18.00;83.10;;;;;;4990692;28;19947;-48
2021/07/18 00:35:37;;;;;;;;;;;18.00;83.50;;;;;;4990962;28;19910;-49
2021/07/18 00:38:03;;;;;;;;;;;17.90;83.60;;;;;;4990829;28;19910;-51
2021/07/18 00:40:28;;;;;;;;;;;17.90;83.60;;;;;;4992464;28;19993;-48
2021/07/18 00:42:54;;;;;;;;;;;17.80;84.10;;;;;;4994114;28;20281;-48
2021/07/18 00:45:19;;;;;;;;;;;17.80;83.80;;;;;;4994065;28;19909;-50
2021/07/18 00:47:45;;;;;;;;;;;17.70;84.20;;;;;;4994314;28;19910;-48
2021/07/18 00:50:12;;;;;;;;;;;17.40;85.30;;;;;;4994237;28;19914;-48
2021/07/18 00:52:37;;;;;;;;;;;17.40;85.60;;;;;;4994121;28;19914;-49
2021/07/18 00:55:06;;;;;;;;;;;17.20;86.40;;;;;;4993779;28;19910;-49
2021/07/18 00:57:32;;;;;;;;;;;17.30;86.00;;;;;;4994133;28;19910;-50
2021/07/18 00:59:59;;;;;;;;;;;17.30;85.60;;;;;;4993759;28;19916;-51
2021/07/18 01:02:25;;;;;;;;;;;17.40;85.90;;;;;;4992411;28;19909;-48
2021/07/18 01:04:51;;;;;;;;;;;17.40;85.60;;;;;;4993892;28;19937;-50
2021/07/18 01:07:16;;;;;;;;;;;17.20;86.40;;;;;;4993739;28;19910;-47
2021/07/18 01:09:42;;;;;;;;;;;17.20;86.20;;;;;;4993850;28;19910;-52
2021/07/18 01:12:08;;;;;;;;;;;17.10;86.70;;;;;;4992147;28;20404;-49
2021/07/18 01:14:33;;;;;;;;;;;17.00;86.80;;;;;;4993483;28;19939;-53
2021/07/18 01:16:59;;;;;;;;;;;17.00;87.20;;;;;;4993739;28;19949;-53
2021/07/18 01:19:26;;;;;;;;;;;17.10;86.90;;;;;;4993667;28;19917;-53
2021/07/18 01:21:58;;;;;;;;;;;17.00;87.20;;;;;;4993313;28;19910;-52
2021/07/18 01:24:24;;;;;;;;;;;16.90;87.40;;;;;;4993341;28;20373;-53
2021/07/18 01:26:49;;;;;;;;;;;16.80;87.50;;;;;;4993725;28;20008;-50
2021/07/18 01:29:15;;;;;;;;;;;16.80;87.50;;;;;;4993365;28;19956;-50
2021/07/18 01:31:41;;;;;;;;;;;16.70;88.10;;;;;;4993683;28;19913;-49
2021/07/18 01:34:06;;;;;;;;;;;16.80;87.50;;;;;;4993538;28;19940;-52
2021/07/18 01:36:32;;;;;;;;;;;16.80;87.70;;;;;;4993921;28;19910;-50
2021/07/18 01:38:57;;;;;;;;;;;16.60;88.30;;;;;;4993647;28;19933;-49
2021/07/18 01:41:23;;;;;;;;;;;16.80;88.00;;;;;;4993326;28;19910;-50
2021/07/18 01:43:48;;;;;;;;;;;16.80;87.70;;;;;;4993254;28;19909;-48
2021/07/18 01:46:14;;;;;;;;;;;16.80;87.80;;;;;;4993310;28;19949;-48
2021/07/18 01:48:40;;;;;;;;;;;16.80;88.30;;;;;;4991876;28;19917;-50
2021/07/18 01:51:06;;;;;;;;;;;16.80;88.10;;;;;;4993145;28;19909;-51
2021/07/18 01:53:31;;;;;;;;;;;16.70;88.20;;;;;;4993010;28;19969;-49
2021/07/18 01:55:57;;;;;;;;;;;16.60;88.60;;;;;;4993120;28;19910;-49
2021/07/18 01:58:28;;;;;;;;;;;16.50;88.80;;;;;;4993228;28;20334;-49
2021/07/18 02:00:54;;;;;;;;;;;16.50;88.90;;;;;;4992976;28;19910;-48
2021/07/18 02:03:20;;;;;;;;;;;16.40;89.20;;;;;;4993192;28;19910;-50
2021/07/18 02:05:45;;;;;;;;;;;16.50;88.80;;;;;;4992913;28;19941;-50
2021/07/18 02:08:11;;;;;;;;;;;16.40;89.30;;;;;;4993198;28;19914;-50
2021/07/18 02:10:36;;;;;;;;;;;16.40;89.40;;;;;;4992817;28;20341;-52
2021/07/18 02:13:02;;;;;;;;;;;16.40;89.40;;;;;;4992724;28;20005;-50
2021/07/18 02:15:28;;;;;;;;;;;16.30;89.50;;;;;;4992780;28;19914;-52
2021/07/18 02:17:53;;;;;;;;;;;16.30;89.70;;;;;;4992792;28;19913;-48
2021/07/18 02:20:20;;;;;;;;;;;16.30;89.90;;;;;;4992618;28;20381;-47
2021/07/18 02:22:51;;;;;;;;;;;16.30;89.90;;;;;;4991529;28;19959;-51
2021/07/18 02:25:17;;;;;;;;;;;16.50;89.20;;;;;;4992602;28;19936;-50
2021/07/18 02:27:43;;;;;;;;;;;16.40;89.10;;;;;;4991410;28;19916;-50
2021/07/18 02:30:13;;;;;;;;;;;16.40;89.30;;;;;;4992821;28;19997;-51
2021/07/18 02:32:41;;;;;;;;;;;16.50;88.70;;;;;;4992213;28;19988;-51
2021/07/18 02:35:08;;;;;;;;;;;16.40;89.30;;;;;;4992383;28;19959;-52
2021/07/18 02:37:33;;;;;;;;;;;16.30;89.70;;;;;;4992413;28;19910;-51
2021/07/18 02:39:59;;;;;;;;;;;16.30;89.80;;;;;;4991142;28;20388;-51
2021/07/18 02:42:24;;;;;;;;;;;16.30;89.80;;;;;;4992718;28;20350;-50
2021/07/18 02:44:50;;;;;;;;;;;16.40;89.50;;;;;;4992308;28;19917;-49
2021/07/18 02:47:15;;;;;;;;;;;16.40;89.10;;;;;;4992270;28;19910;-52
2021/07/18 02:49:41;;;;;;;;;;;16.30;89.60;;;;;;4992263;28;19913;-51
2021/07/18 02:52:08;;;;;;;;;;;16.30;89.50;;;;;;4991052;28;20370;-52
2021/07/18 02:54:34;;;;;;;;;;;16.40;89.40;;;;;;4993269;28;19910;-51
2021/07/18 02:57:00;;;;;;;;;;;16.30;89.50;;;;;;4992061;28;19916;-50
2021/07/18 02:59:26;;;;;;;;;;;16.30;89.50;;;;;;4992142;28;19917;-52
2021/07/18 03:01:51;;;;;;;;;;;16.30;89.80;;;;;;4992362;28;19955;-50
2021/07/18 03:04:17;;;;;;;;;;;16.30;89.80;;;;;;4990302;28;19956;-48
2021/07/18 03:06:42;;;;;;;;;;;16.30;89.90;;;;;;4992298;28;19910;-48
2021/07/18 03:09:08;;;;;;;;;;;16.40;89.50;;;;;;4992015;28;20364;-48
2021/07/18 03:11:33;;;;;;;;;;;16.40;89.20;;;;;;4991942;28;19910;-48
2021/07/18 03:13:59;;;;;;;;;;;16.40;89.60;;;;;;4991792;28;20346;-51
2021/07/18 03:16:24;;;;;;;;;;;16.30;89.70;;;;;;4991836;28;20276;-51
2021/07/18 03:18:50;;;;;;;;;;;16.30;89.70;;;;;;4991911;28;19916;-47
2021/07/18 03:21:15;;;;;;;;;;;16.30;89.90;;;;;;4991740;28;19998;-48
2021/07/18 03:23:41;;;;;;;;;;;16.30;89.70;;;;;;4990623;28;19914;-48
2021/07/18 03:26:06;;;;;;;;;;;16.30;89.50;;;;;;4992302;28;19918;-47
2021/07/18 03:28:31;;;;;;;;;;;16.20;89.90;;;;;;4991673;28;19913;-52
2021/07/18 03:30:57;;;;;;;;;;;16.10;90.10;;;;;;4991675;28;20030;-48
2021/07/18 03:33:23;;;;;;;;;;;16.10;90.40;;;;;;4991383;28;19922;-49
2021/07/18 03:35:48;;;;;;;;;;;16.10;90.40;;;;;;4991565;28;19956;-50
2021/07/18 03:38:14;;;;;;;;;;;16.10;90.30;;;;;;4991672;28;20000;-49
2021/07/18 03:40:39;;;;;;;;;;;16.10;90.20;;;;;;4991589;28;20361;-48
2021/07/18 03:43:05;;;;;;;;;;;16.10;90.50;;;;;;4991877;28;19953;-47
2021/07/18 03:45:30;;;;;;;;;;;16.10;90.20;;;;;;4992014;28;19914;-47
2021/07/18 03:47:56;;;;;;;;;;;16.00;90.40;;;;;;4991748;28;20424;-48
2021/07/18 03:50:22;;;;;;;;;;;16.10;90.50;;;;;;4991529;28;19910;-47
2021/07/18 03:52:48;;;;;;;;;;;16.10;90.40;;;;;;4992372;28;19972;-47
2021/07/18 03:55:14;;;;;;;;;;;16.00;90.50;;;;;;4991437;28;19917;-50
2021/07/18 03:57:39;;;;;;;;;;;15.90;90.80;;;;;;4991756;28;19910;-48
2021/07/18 04:00:05;;;;;;;;;;;16.00;90.70;;;;;;4991956;28;19910;-46
2021/07/18 04:02:31;;;;;;;;;;;16.10;90.40;;;;;;4991646;28;19914;-46
2021/07/18 04:04:57;;;;;;;;;;;16.00;90.50;;;;;;4991700;28;20350;-52
2021/07/18 04:07:22;;;;;;;;;;;16.10;90.40;;;;;;4991276;28;19910;-47
2021/07/18 04:09:48;;;;;;;;;;;16.20;90.20;;;;;;4991479;28;19959;-46
2021/07/18 04:12:13;;;;;;;;;;;16.30;89.80;;;;;;4991138;28;20250;-46
2021/07/18 04:14:39;;;;;;;;;;;16.30;89.60;;;;;;4991488;28;19910;-46
2021/07/18 04:17:04;;;;;;;;;;;16.30;89.70;;;;;;4994848;28;20353;-47
2021/07/18 04:19:30;;;;;;;;;;;16.30;90.10;;;;;;4994542;28;20377;-46
2021/07/18 04:21:55;;;;;;;;;;;16.30;90.00;;;;;;4994668;28;20018;-47
2021/07/18 04:24:21;;;;;;;;;;;16.30;90.30;;;;;;4994751;28;19949;-46
2021/07/18 04:26:46;;;;;;;;;;;16.30;90.00;;;;;;4994630;28;19910;-48
2021/07/18 04:29:12;;;;;;;;;;;16.40;89.90;;;;;;4994335;28;20391;-50
2021/07/18 04:31:38;;;;;;;;;;;16.40;89.70;;;;;;4992891;28;19968;-46
2021/07/18 04:34:04;;;;;;;;;;;16.60;89.60;;;;;;4994797;28;20026;-47
2021/07/18 04:36:29;;;;;;;;;;;16.60;89.50;;;;;;4994294;28;20434;-47
2021/07/18 04:38:55;;;;;;;;;;;16.60;89.30;;;;;;4994190;28;19909;-46
2021/07/18 04:41:22;;;;;;;;;;;16.50;89.80;;;;;;4994497;28;19914;-47
2021/07/18 04:43:47;;;;;;;;;;;16.50;90.10;;;;;;4994274;28;19914;-49
2021/07/18 04:46:13;;;;;;;;;;;16.60;89.80;;;;;;4993984;28;20400;-48
2021/07/18 04:48:39;;;;;;;;;;;16.60;89.80;;;;;;4994067;28;19955;-46
2021/07/18 04:51:04;;;;;;;;;;;16.70;89.60;;;;;;4992823;28;20011;-46
2021/07/18 04:53:30;;;;;;;;;;;16.80;89.20;;;;;;4993991;28;19914;-51
2021/07/18 04:55:55;;;;;;;;;;;16.70;89.70;;;;;;4992698;28;20327;-47
2021/07/18 04:58:21;;;;;;;;;;;16.60;89.80;;;;;;4993916;28;19914;-48
2021/07/18 05:00:46;;;;;;;;;;;16.70;90.00;;;;;;4994443;28;19917;-47
2021/07/18 05:03:12;;;;;;;;;;;16.80;89.40;;;;;;4993843;28;20376;-48
2021/07/18 05:05:37;;;;;;;;;;;16.80;89.60;;;;;;4992547;28;19916;-49
2021/07/18 05:08:03;;;;;;;;;;;16.70;89.60;;;;;;4993806;28;19974;-47
2021/07/18 05:10:29;;;;;;;;;;;16.50;90.00;;;;;;4993893;28;19910;-52
2021/07/18 05:12:55;;;;;;;;;;;16.60;90.40;;;;;;4993613;28;20273;-47
2021/07/18 05:15:21;;;;;;;;;;;16.80;89.60;;;;;;4993540;28;19910;-48
2021/07/18 05:17:47;;;;;;;;;;;16.90;89.30;;;;;;4994461;28;19921;-49
2021/07/18 05:20:14;;;;;;;;;;;16.90;89.00;;;;;;4993778;28;19993;-49
2021/07/18 05:22:39;;;;;;;;;;;17.00;88.80;;;;;;4993509;28;19910;-47
2021/07/18 05:25:06;;;;;;;;;;;17.00;89.00;;;;;;4993534;28;19916;-52
2021/07/18 05:27:32;;;;;;;;;;;17.00;88.80;;;;;;4991959;28;19941;-48
2021/07/18 05:29:58;;;;;;;;;;;17.00;89.20;;;;;;4993834;28;20399;-48
2021/07/18 05:32:24;;;;;;;;;;;17.20;88.50;;;;;;4993245;28;19921;-48
2021/07/18 05:34:49;;;;;;;;;;;17.20;88.40;;;;;;4993401;28;19952;-47
2021/07/18 05:37:15;;;;;;;;;;;17.30;88.10;;;;;;4993427;28;20281;-52
2021/07/18 05:39:40;;;;;;;;;;;17.30;88.60;;;;;;4993563;28;20264;-49
2021/07/18 05:42:06;;;;;;;;;;;17.30;88.40;;;;;;4993602;28;19978;-48
2021/07/18 05:44:32;;;;;;;;;;;17.40;87.50;;;;;;4991947;28;20414;-48
2021/07/18 05:46:57;;;;;;;;;;;17.50;87.40;;;;;;4993850;28;19917;-50
2021/07/18 05:49:23;;;;;;;;;;;17.40;87.90;;;;;;4993497;28;19909;-48
2021/07/18 05:51:49;;;;;;;;;;;17.50;87.50;;;;;;4993195;28;20396;-47
2021/07/18 05:54:14;;;;;;;;;;;17.60;87.50;;;;;;4993084;28;19917;-51
2021/07/18 05:56:40;;;;;;;;;;;17.80;86.80;;;;;;4993097;28;19963;-48
2021/07/18 05:59:05;;;;;;;;;;;17.80;86.70;;;;;;4993093;28;19917;-48
2021/07/18 06:01:31;;;;;;;;;;;17.60;87.30;;;;;;4993020;28;19967;-49
2021/07/18 06:03:56;;;;;;;;;;;17.80;86.40;;;;;;4991720;28;20029;-48
2021/07/18 06:06:22;;;;;;;;;;;17.90;86.20;;;;;;4992808;28;19916;-49
2021/07/18 06:08:47;;;;;;;;;;;18.00;85.70;;;;;;4993384;28;20288;-48
2021/07/18 06:11:13;;;;;;;;;;;18.20;85.00;;;;;;4993104;28;20338;-48
2021/07/18 06:13:38;;;;;;;;;;;18.10;85.10;;;;;;4991432;28;19922;-48
2021/07/18 06:16:04;;;;;;;;;;;18.20;85.20;;;;;;4992687;28;19955;-48
2021/07/18 06:18:30;;;;;;;;;;;18.30;84.10;;;;;;4992923;28;19914;-47
2021/07/18 06:20:55;;;;;;;;;;;18.30;83.60;;;;;;4991373;28;20487;-49
2021/07/18 06:23:21;;;;;;;;;;;18.50;82.90;;;;;;4975856;28;19921;-48
2021/07/18 06:25:46;;;;;;;;;;;18.70;82.30;;;;;;4992772;28;19910;-48
2021/07/18 06:28:12;;;;;;;;;;;18.90;81.30;;;;;;4991253;28;20001;-51
2021/07/18 06:30:37;;;;;;;;;;;19.00;81.30;;;;;;4992454;28;20401;-48
2021/07/18 06:33:03;;;;;;;;;;;19.10;80.40;;;;;;4992212;28;19922;-47
2021/07/18 06:35:28;;;;;;;;;;;19.30;79.70;;;;;;4992768;28;19937;-51
2021/07/18 06:37:54;;;;;;;;;;;19.40;76.40;;;;;;4991839;28;19959;-50
2021/07/18 06:40:19;;;;;;;;;;;19.40;76.70;;;;;;4992065;28;20452;-50
2021/07/18 06:42:45;;;;;;;;;;;19.40;76.70;;;;;;4992175;28;19917;-48
2021/07/18 06:45:11;;;;;;;;;;;19.70;75.50;;;;;;4992120;28;20305;-48
2021/07/18 06:47:36;;;;;;;;;;;19.70;75.00;;;;;;4992272;28;19917;-48
2021/07/18 06:50:02;;;;;;;;;;;20.00;72.80;;;;;;4991869;28;20277;-51
2021/07/18 06:52:28;;;;;;;;;;;20.20;72.00;;;;;;4992144;28;19921;-49
2021/07/18 06:54:53;;;;;;;;;;;20.20;71.10;;;;;;4993018;28;19910;-50
2021/07/18 06:57:19;;;;;;;;;;;20.10;71.60;;;;;;4992452;28;19917;-50
2021/07/18 06:59:48;;;;;;;;;;;20.10;71.50;;;;;;4991543;28;19910;-48
2021/07/18 07:02:14;;;;;;;;;;;20.10;71.40;;;;;;4991202;28;19917;-49
2021/07/18 07:04:40;;;;;;;;;;;20.00;72.00;;;;;;4991661;28;20345;-53
2021/07/18 07:07:05;;;;;;;;;;;20.30;71.70;;;;;;4991856;28;19910;-52
2021/07/18 07:09:31;;;;;;;;;;;20.30;71.40;;;;;;4991607;28;20000;-49
2021/07/18 07:11:57;;;;;;;;;;;20.40;70.10;;;;;;4990256;28;19941;-50
2021/07/18 07:14:22;;;;;;;;;;;20.40;70.50;;;;;;4990127;28;19914;-47
2021/07/18 07:16:48;;;;;;;;;;;20.70;69.80;;;;;;4991580;28;20344;-47
2021/07/18 07:19:13;;;;;;;;;;;20.60;70.60;;;;;;4991398;28;19916;-48
2021/07/18 07:21:39;;;;;;;;;;;20.70;69.90;;;;;;4991392;28;19910;-47
2021/07/18 07:24:04;;;;;;;;;;;20.80;69.00;;;;;;4991017;28;19917;-47
2021/07/18 07:26:30;;;;;;;;;;;20.80;69.20;;;;;;4991025;28;19910;-47
2021/07/18 07:28:55;;;;;;;;;;;21.10;68.50;;;;;;4991088;28;19959;-50
2021/07/18 07:31:21;;;;;;;;;;;20.90;69.10;;;;;;4991297;28;19917;-50
2021/07/18 07:33:47;;;;;;;;;;;21.00;69.10;;;;;;4990718;28;19926;-50
2021/07/18 07:36:15;;;;;;;;;;;21.50;67.30;;;;;;4991304;28;20388;-49
2021/07/18 07:38:40;;;;;;;;;;;21.80;65.80;;;;;;4990079;28;20365;-49
2021/07/18 07:41:06;;;;;;;;;;;22.10;64.10;;;;;;4991511;28;19939;-52
2021/07/18 07:43:32;;;;;;;;;;;22.40;63.40;;;;;;4991091;28;19949;-50
2021/07/18 07:45:57;;;;;;;;;;;22.40;62.50;;;;;;4991051;28;19990;-54
2021/07/18 07:48:23;;;;;;;;;;;22.50;62.10;;;;;;4991260;28;19910;-50
2021/07/18 07:50:48;;;;;;;;;;;23.10;60.50;;;;;;4994600;28;19910;-49
2021/07/18 07:53:14;;;;;;;;;;;24.00;57.90;;;;;;4993346;28;20008;-49
2021/07/18 07:55:39;;;;;;;;;;;23.70;58.90;;;;;;4994846;28;19998;-49
2021/07/18 07:58:06;;;;;;;;;;;23.80;58.50;;;;;;4994461;28;20001;-52
2021/07/18 08:00:32;;;;;;;;;;;23.30;59.10;;;;;;4994488;28;19953;-48
2021/07/18 08:02:57;;;;;;;;;;;23.10;61.10;;;;;;4994379;28;19917;-52
2021/07/18 08:05:23;;;;;;;;;;;22.80;62.50;;;;;;4994592;28;19910;-50
2021/07/18 08:07:48;;;;;;;;;;;23.30;59.30;;;;;;4993001;28;19910;-53
2021/07/18 08:10:15;;;;;;;;;;;23.50;58.90;;;;;;4993032;28;19913;-50
2021/07/18 08:12:42;;;;;;;;;;;23.30;59.80;;;;;;4992916;28;20027;-48
2021/07/18 08:15:08;;;;;;;;;;;23.50;60.20;;;;;;4994320;28;20392;-49
2021/07/18 08:17:34;;;;;;;;;;;24.20;58.30;;;;;;4994475;28;19910;-49
2021/07/18 08:20:01;;;;;;;;;;;24.30;58.40;;;;;;4994146;28;19959;-52
2021/07/18 08:22:26;;;;;;;;;;;24.90;54.90;;;;;;4994702;28;19917;-48
2021/07/18 08:24:52;;;;;;;;;;;24.80;55.60;;;;;;4994216;28;19910;-52
2021/07/18 08:27:17;;;;;;;;;;;24.80;55.30;;;;;;4995210;28;19910;-51
2021/07/18 08:29:43;;;;;;;;;;;24.80;55.40;;;;;;4994037;28;20012;-51
2021/07/18 08:32:08;;;;;;;;;;;25.70;54.70;;;;;;4994034;28;19980;-50
2021/07/18 08:34:34;;;;;;;;;;;26.40;52.80;;;;;;4994099;28;19929;-48
2021/07/18 08:36:59;;;;;;;;;;;26.40;52.70;;;;;;4993855;28;19914;-51
2021/07/18 08:39:25;;;;;;;;;;;26.10;53.80;;;;;;4993825;28;20011;-50
2021/07/18 08:41:53;;;;;;;;;;;26.60;52.80;;;;;;4993815;28;19918;-49
2021/07/18 08:44:19;;;;;;;;;;;26.60;50.70;;;;;;4993822;28;20001;-51
2021/07/18 08:46:44;;;;;;;;;;;25.40;54.40;;;;;;4992309;28;19910;-53
2021/07/18 08:49:10;;;;;;;;;;;25.80;53.60;;;;;;4993441;28;19910;-50
2021/07/18 08:51:36;;;;;;;;;;;25.70;53.00;;;;;;4993693;28;19911;-50
2021/07/18 08:54:02;;;;;;;;;;;26.00;51.50;;;;;;4992224;28;19957;-51
2021/07/18 08:56:31;;;;;;;;;;;26.70;49.30;;;;;;4993742;28;19916;-48
2021/07/18 08:58:58;;;;;;;;;;;26.70;49.40;;;;;;4993978;28;20421;-50
2021/07/18 09:01:24;;;;;;;;;;;26.40;50.50;;;;;;4993187;28;19910;-50
2021/07/18 09:03:49;;;;;;;;;;;27.30;47.90;;;;;;4993429;28;19918;-53
2021/07/18 09:06:15;;;;;;;;;;;26.80;48.60;;;;;;4993448;28;19910;-52
2021/07/18 09:08:42;;;;;;;;;;;27.80;46.50;;;;;;4993807;28;19910;-50
2021/07/18 09:11:17;;;;;;;;;;;26.50;48.50;;;;;;4991606;28;19974;-52
2021/07/18 09:13:54;;;;;;;;;;;27.10;47.20;;;;;;4992876;28;19914;-49
2021/07/18 09:16:24;;;;;;;;;;;27.50;45.80;;;;;;4991743;28;19916;-51
2021/07/18 09:18:49;;;;;;;;;;;27.70;45.40;;;;;;4993148;28;19916;-47
2021/07/18 09:21:15;;;;;;;;;;;27.40;46.10;;;;;;4993073;28;20298;-50
2021/07/18 09:23:40;;;;;;;;;;;27.40;46.30;;;;;;4993394;28;19910;-37
2021/07/18 09:26:26;;;;;;;;;;;28.20;44.50;;;;;;4992946;28;19916;-37
2021/07/18 09:28:53;;;;;;;;;;;27.60;46.50;;;;;;4993409;28;19913;-37
2021/07/18 09:31:28;;;;;;;;;;;27.20;47.40;;;;;;4992882;28;20414;-38
2021/07/18 09:34:13;;;;;;;;;;;26.30;49.60;;;;;;4992648;28;19921;-37
2021/07/18 09:36:39;;;;;;;;;;;26.60;49.10;;;;;;4992945;28;19932;-37
2021/07/18 09:39:10;;;;;;;;;;;27.60;46.60;;;;;;4992484;28;20012;-37
2021/07/18 09:41:36;;;;;;;;;;;27.50;46.60;;;;;;4991661;28;20009;-37
2021/07/18 09:44:02;;;;;;;;;;;28.10;45.30;;;;;;4991452;28;19914;-37
2021/07/18 09:46:32;;;;;;;;;;;27.70;46.30;;;;;;4991997;28;20279;-37
2021/07/18 09:49:00;;;;;;;;;;;28.00;45.20;;;;;;4992970;28;19917;-37
2021/07/18 09:51:25;;;;;;;;;;;27.60;46.60;;;;;;4992730;28;20247;-36
2021/07/18 09:54:11;;;;;;;;;;;28.30;45.10;;;;;;4992376;28;19924;-37
2021/07/18 09:56:37;;;;;;;;;;;27.40;46.40;;;;;;4992323;28;20349;-36
2021/07/18 09:59:03;;;;;;;;;;;27.80;45.80;;;;;;4992853;28;20341;-37
2021/07/18 10:01:29;;;;;;;;;;;28.00;45.20;;;;;;4992557;28;19917;-37
2021/07/18 10:03:55;;;;;;;;;;;28.20;45.40;;;;;;4991074;28;19910;-37
2021/07/18 10:06:23;;;;;;;;;;;28.90;43.80;;;;;;4992406;28;19963;-37
2021/07/18 10:08:49;;;;;;;;;;;28.80;44.10;;;;;;4990947;28;19922;-37
2021/07/18 10:11:16;;;;;;;;;;;28.00;46.30;;;;;;4992247;28;19933;-37
2021/07/18 10:13:42;;;;;;;;;;;28.70;43.70;;;;;;4990895;28;19925;-37
2021/07/18 10:16:08;;;;;;;;;;;29.40;42.40;;;;;;4992368;28;19910;-37
2021/07/18 10:18:35;;;;;;;;;;;30.30;40.70;;;;;;4992251;28;19917;-37
2021/07/18 10:21:01;;;;;;;;;;;30.10;40.90;;;;;;4990944;28;19910;-37
2021/07/18 10:23:26;;;;;;;;;;;29.30;42.30;;;;;;4992168;28;19910;-37
2021/07/18 10:25:52;;;;;;;;;;;28.80;42.90;;;;;;4992071;28;19913;-37
2021/07/18 10:28:20;;;;;;;;;;;29.60;41.90;;;;;;4992022;28;19918;-45
2021/07/18 10:30:48;;;;;;;;;;;29.70;41.20;;;;;;4991952;28;19910;-36
2021/07/18 10:33:18;;;;;;;;;;;28.50;45.10;;;;;;4991792;28;20387;-36
2021/07/18 11:10:25;;;;;;;5.05;2.20;;;29.50;43.50;;;;;;5070520;28;20813;-36
2021/07/18 11:13:03;;;;;;;2.58;2.35;;;29.40;43.30;;;;;;5070188;28;20032;-37
2021/07/18 11:15:37;;;;;;;4.68;2.20;;;29.30;43.40;;;;;;5068441;28;20504;-37
2021/07/18 11:18:03;;;;;;;6.93;2.45;;;29.70;43.50;;;;;;5069843;28;20052;-37
2021/07/18 11:20:56;;;;;;;4.28;2.70;;;29.80;42.60;;;;;;5069662;28;20052;-37
2021/07/18 11:23:38;;;;;;;4.57;2.20;;;30.20;42.50;;;;;;5069791;28;20025;-37
2021/07/18 11:26:04;;;;;;;5.68;2.15;;;30.70;40.20;;;;;;5069638;28;20032;-37
2021/07/18 11:28:30;;;;;;;4.72;2.00;;;30.90;39.60;;;;;;5069536;28;20115;-37
2021/07/18 11:31:14;;;;;;;4.43;2.10;;;29.90;42.90;;;;;;5070004;28;20051;-36
2021/07/18 13:27:59;;;;;;;6.95;3.05;;;31.20;39.80;;;;;;5070398;28;20849;-36
2021/07/18 13:30:29;;;;;;;4.03;2.53;;;31.40;37.30;;;;;;5070369;28;20021;-36
2021/07/18 13:33:02;;;;;;;4.35;3.25;;;31.60;37.30;;;;;;5070609;28;20057;-36
2021/07/18 13:35:28;;;;;;;4.82;2.67;;;33.20;35.00;;;;;;5068986;28;20360;-36
2021/07/18 13:37:59;;;;;;;4.05;2.83;;;31.80;36.80;;;;;;5070108;28;20032;-37
2021/07/18 13:40:31;;;;;;;6.32;3.80;;;31.30;38.60;;;;;;5069943;28;20012;-36
2021/07/18 13:43:16;;;;;;;5.85;2.85;;;31.30;38.80;;;;;;5070346;28;20028;-37
2021/07/18 13:45:49;;;;;;;5.57;2.70;;;30.90;39.90;;;;;;5069510;28;20025;-36
2021/07/18 13:48:27;;;;;;;3.30;3.00;;;30.70;40.40;;;;;;5069527;28;20025;-37
2021/07/18 13:50:54;;;;;;;6.47;3.53;;;31.50;39.40;;;;;;5068266;28;20094;-37
2021/07/18 13:53:20;;;;;;;5.63;2.80;;;32.40;37.80;;;;;;5070024;28;20495;-36
2021/07/18 13:55:46;;;;;;;7.25;3.10;;;31.50;38.00;;;;;;5069684;28;20056;-37
2021/07/18 13:58:12;;;;;;;6.03;3.08;;;30.40;39.50;;;;;;5070278;28;20052;-37
2021/07/18 14:00:41;;;;;;;5.05;3.13;;;29.00;43.20;;;;;;5069825;28;20477;-37
2021/07/18 14:03:10;;;;;;;3.08;2.80;;;30.20;41.50;;;;;;5069718;28;20087;-37
2021/07/18 14:05:37;;;;;;;4.10;2.50;;;30.00;42.20;;;;;;5069690;28;20028;-38
2021/07/18 14:08:04;;;;;;;3.70;2.92;;;29.40;43.60;;;;;;5069968;28;20255;-37
2021/07/18 14:10:30;;;;;;;4.68;3.40;;;29.30;43.50;;;;;;5069300;28;20513;-53
2021/07/18 14:12:56;;;;;;;7.97;4.32;;;30.30;40.90;;;;;;5069345;28;20020;-38
2021/07/18 14:15:23;;;;;;;6.90;3.20;;;29.70;41.80;;;;;;5069653;28;20028;-37
2021/07/18 14:17:50;;;;;;;3.13;2.83;;;30.60;40.80;;;;;;5069185;28;20029;-37
2021/07/18 14:20:22;;;;;;;5.82;3.17;;;30.60;39.40;;;;;;5069734;28;20025;-38
2021/07/18 14:22:51;;;;;;;7.25;3.33;;;30.60;39.50;;;;;;5069164;28;20044;-37
2021/07/18 14:25:17;;;;;;;3.95;2.88;;;30.50;39.80;;;;;;5067651;28;20131;-38
2021/07/18 14:27:45;;;;;;;3.42;3.05;;;30.70;40.10;;;;;;5052287;28;20045;-37
2021/07/18 14:30:14;;;;;;;8.07;3.70;;;31.10;39.50;;;;;;5049106;28;20017;-38
2021/07/18 14:32:41;;;;;;;3.65;3.35;;;31.80;38.20;;;;;;5048555;28;20026;-38
2021/07/18 14:35:07;;;;;;;3.47;3.13;;;32.40;37.30;;;;;;5049796;28;20025;-37
2021/07/18 14:37:34;;;;;;;4.97;3.05;;;31.50;36.90;;;;;;5046012;28;20029;-37
2021/07/18 14:40:01;;;;;;;3.60;3.15;;;31.60;36.50;;;;;;5036855;28;20032;-37
2021/07/18 14:42:27;;;;;;;5.85;3.53;;;31.00;36.50;;;;;;5036239;28;20045;-38
2021/07/18 14:44:53;;;;;;;3.78;3.20;;;30.50;37.60;;;;;;5036184;28;20068;-39
2021/07/18 14:47:20;;;;;;;5.07;3.28;;;30.60;36.80;;;;;;5036578;28;20095;-38
2021/07/18 14:49:45;;;;;;;3.22;2.92;;;29.90;38.10;;;;;;5036161;28;20516;-39
2021/07/18 14:52:15;;;;;;;6.10;3.38;;;29.80;38.90;;;;;;5036775;28;20022;-39
2021/07/18 14:54:41;;;;;;;6.45;3.58;;;29.60;39.30;;;;;;5035803;28;20029;-38
2021/07/18 14:57:07;;;;;;;4.72;3.47;;;29.50;39.30;;;;;;5035075;28;20037;-38
2021/07/18 14:59:33;;;;;;;8.77;3.40;;;29.40;39.80;;;;;;5036202;28;20083;-46
2021/07/18 15:02:00;;;;;;;3.45;2.92;;;29.60;40.10;;;;;;5035594;28;20029;-40
2021/07/18 15:04:25;;;;;;;4.68;3.17;;;29.00;40.50;;;;;;5035330;28;20069;-38
2021/07/18 15:06:51;;;;;;;4.95;3.42;;;29.30;39.60;;;;;;5035800;28;20053;-38
2021/07/18 15:09:17;;;;;;;4.35;3.95;;;29.50;39.30;;;;;;5034223;28;20151;-39
2021/07/18 15:11:43;;;;;;;5.35;3.15;;;29.80;38.90;;;;;;5035980;28;20021;-37
2021/07/18 15:14:08;;;;;;;12.55;3.55;;;29.30;39.20;;;;;;5035960;28;20086;-37
2021/07/18 15:16:34;;;;;;;3.67;3.33;;;28.80;40.00;;;;;;5036418;28;20101;-37
2021/07/18 15:19:00;;;;;;;5.85;3.75;;;29.00;39.10;;;;;;5036031;28;20113;-37
2021/07/18 15:21:27;;;;;;;3.30;3.00;;;29.30;39.10;;;;;;5034746;28;20090;-37
2021/07/18 15:23:53;;;;;;;6.25;3.13;;;29.30;37.70;;;;;;5034657;28;20025;-37
2021/07/18 15:26:19;;;;;;;5.40;3.10;;;29.70;37.80;;;;;;5033374;28;20052;-36
2021/07/18 15:28:46;;;;;;;4.05;3.47;;;29.30;38.80;;;;;;5034727;28;20014;-37
2021/07/18 15:31:11;;;;;;;3.65;3.20;;;29.10;39.50;;;;;;5034857;28;20025;-37
2021/07/18 15:33:37;;;;;;;4.13;3.72;;;29.00;39.60;;;;;;5034904;28;20437;-37
2021/07/18 15:36:03;;;;;;;3.35;3.05;;;29.00;38.60;;;;;;5034914;28;20096;-38
2021/07/18 15:38:30;;;;;;;4.78;3.17;;;29.20;38.70;;;;;;5034861;28;20469;-38
2021/07/18 15:40:57;;;;;;;5.78;3.28;;;28.80;39.50;;;;;;5034615;28;20481;-39
2021/07/18 15:43:22;;;;;;;3.53;3.25;;;28.70;39.80;;;;;;5034747;28;20021;-36
2021/07/18 15:45:48;;;;;;;4.47;4.00;;;28.40;41.50;;;;;;5034974;28;20084;-36
2021/07/18 15:48:14;;;;;;;3.70;3.38;;;28.70;41.50;;;;;;5033345;28;20548;-36
2021/07/18 15:50:40;;;;;;;3.95;3.58;;;28.90;41.00;;;;;;5032088;28;20025;-37
2021/07/18 15:53:05;;;;;;;3.60;3.30;;;28.80;41.10;;;;;;5033435;28;20411;-37
2021/07/18 15:55:31;;;;;;;3.38;3.08;;;28.70;41.90;;;;;;5034887;28;20024;-37
2021/07/18 15:57:57;;;;;;;4.07;3.53;;;28.50;42.90;;;;;;5034909;28;20477;-37
2021/07/18 16:00:23;;;;;;;4.97;3.22;;;28.40;43.20;;;;;;5034651;28;20028;-37
2021/07/18 16:02:48;;;;;;;4.53;3.33;;;28.70;42.80;;;;;;5034387;28;20065;-38
2021/07/18 16:05:14;;;;;;;6.15;3.42;;;28.80;42.90;;;;;;5032903;28;20076;-37
2021/07/18 16:07:43;;;;;;;3.38;3.08;;;28.70;43.50;;;;;;5033444;28;20029;-37
2021/07/18 16:10:10;;;;;;;3.67;2.75;;;28.50;43.80;;;;;;5035193;28;20021;-38
2021/07/18 16:12:36;;;;;;;4.50;3.20;;;28.70;43.80;;;;;;5034434;28;20021;-37
2021/07/18 16:15:03;;;;;;;4.30;3.53;;;28.80;42.80;;;;;;5034731;28;20021;-36
2021/07/18 16:17:32;;;;;;;4.57;3.28;;;28.80;42.50;;;;;;5034278;28;20100;-38
2021/07/18 16:19:58;;;;;;;3.90;3.30;;;29.10;41.20;;;;;;5033627;28;20524;-38